sensor_id;sensor_type;location;lat;lon;timestamp;temperature;humidity
68485;DHT22;55472;50.060;21.960;2024-03-02T00:00:19;6.00;99.90
68485;DHT22;55472;50.060;21.960;2024-03-02T00:03:07;6.10;99.90
68485;DHT22;55472;50.060;21.960;2024-03-02T00:05:35;6.00;99.90
68485;DHT22;55472;50.060;21.960;2024-03-02T00:08:04;6.00;99.90
68485;DHT22;55472;50.060;21.960;2024-03-02T00:10:39;6.00;99.90
68485;DHT22;55472;50.060;21.960;2024-03-02T00:13:07;6.10;99.90
68485;DHT22;55472;50.060;21.960;2024-03-02T00:18:14;6.10;99.90
68485;DHT22;55472;50.060;21.960;2024-03-02T00:20:41;6.00;99.90
68485;DHT22;55472;50.060;21.960;2024-03-02T00:23:08;6.00;99.90
68485;DHT22;55472;50.060;21.960;2024-03-02T00:25:46;6.00;99.90
68485;DHT22;55472;50.060;21.960;2024-03-02T00:28:27;6.00;99.90
68485;DHT22;55472;50.060;21.960;2024-03-02T00:31:02;6.00;99.90
68485;DHT22;55472;50.060;21.960;2024-03-02T00:33:49;6.00;99.90
68485;DHT22;55472;50.060;21.960;2024-03-02T00:36:17;6.00;99.90
68485;DHT22;55472;50.060;21.960;2024-03-02T00:38:49;5.90;99.90
68485;DHT22;55472;50.060;21.960;2024-03-02T00:41:25;5.90;99.90
68485;DHT22;55472;50.060;21.960;2024-03-02T00:44:12;5.90;99.90
68485;DHT22;55472;50.060;21.960;2024-03-02T00:46:40;5.90;99.90
68485;DHT22;55472;50.060;21.960;2024-03-02T00:51:47;5.90;99.90
68485;DHT22;55472;50.060;21.960;2024-03-02T00:54:14;5.90;99.90
68485;DHT22;55472;50.060;21.960;2024-03-02T00:56:42;5.90;99.90
68485;DHT22;55472;50.060;21.960;2024-03-02T00:59:10;5.90;99.90
68485;DHT22;55472;50.060;21.960;2024-03-02T01:01:37;5.90;99.90
68485;DHT22;55472;50.060;21.960;2024-03-02T01:04:03;5.90;99.90
68485;DHT22;55472;50.060;21.960;2024-03-02T01:06:30;5.90;99.90
68485;DHT22;55472;50.060;21.960;2024-03-02T01:08:56;5.90;99.90
68485;DHT22;55472;50.060;21.960;2024-03-02T01:11:22;5.90;99.90
68485;DHT22;55472;50.060;21.960;2024-03-02T01:13:48;5.90;99.90
68485;DHT22;55472;50.060;21.960;2024-03-02T01:16:15;6.00;99.90
68485;DHT22;55472;50.060;21.960;2024-03-02T01:18:41;6.00;99.90
68485;DHT22;55472;50.060;21.960;2024-03-02T01:21:08;6.00;99.90
68485;DHT22;55472;50.060;21.960;2024-03-02T01:23:34;5.90;99.90
68485;DHT22;55472;50.060;21.960;2024-03-02T01:26:00;5.90;99.90
68485;DHT22;55472;50.060;21.960;2024-03-02T01:28:26;6.00;99.90
68485;DHT22;55472;50.060;21.960;2024-03-02T01:30:52;6.00;99.90
68485;DHT22;55472;50.060;21.960;2024-03-02T01:33:19;5.90;99.90
68485;DHT22;55472;50.060;21.960;2024-03-02T01:35:46;5.90;99.90
68485;DHT22;55472;50.060;21.960;2024-03-02T01:38:12;6.00;99.90
68485;DHT22;55472;50.060;21.960;2024-03-02T01:40:39;5.90;99.90
68485;DHT22;55472;50.060;21.960;2024-03-02T01:43:05;6.00;99.90
68485;DHT22;55472;50.060;21.960;2024-03-02T01:45:32;6.00;99.90
68485;DHT22;55472;50.060;21.960;2024-03-02T01:47:58;6.00;99.90
68485;DHT22;55472;50.060;21.960;2024-03-02T01:50:29;5.90;99.90
68485;DHT22;55472;50.060;21.960;2024-03-02T01:52:58;5.90;99.90
68485;DHT22;55472;50.060;21.960;2024-03-02T01:55:25;5.90;99.90
68485;DHT22;55472;50.060;21.960;2024-03-02T01:57:52;5.90;99.90
68485;DHT22;55472;50.060;21.960;2024-03-02T02:00:21;5.90;99.90
68485;DHT22;55472;50.060;21.960;2024-03-02T02:02:51;5.90;99.90
68485;DHT22;55472;50.060;21.960;2024-03-02T02:05:17;5.90;99.90
68485;DHT22;55472;50.060;21.960;2024-03-02T02:07:44;5.90;99.90
68485;DHT22;55472;50.060;21.960;2024-03-02T02:10:10;5.90;99.90
68485;DHT22;55472;50.060;21.960;2024-03-02T02:12:37;5.90;99.90
68485;DHT22;55472;50.060;21.960;2024-03-02T02:15:22;5.90;99.90
68485;DHT22;55472;50.060;21.960;2024-03-02T02:17:49;5.90;99.90
68485;DHT22;55472;50.060;21.960;2024-03-02T02:20:15;5.80;99.90
68485;DHT22;55472;50.060;21.960;2024-03-02T02:25:25;5.90;99.90
68485;DHT22;55472;50.060;21.960;2024-03-02T02:27:52;5.90;99.90
68485;DHT22;55472;50.060;21.960;2024-03-02T02:30:19;5.80;99.90
68485;DHT22;55472;50.060;21.960;2024-03-02T02:32:46;5.90;99.90
68485;DHT22;55472;50.060;21.960;2024-03-02T02:35:12;5.80;99.90
68485;DHT22;55472;50.060;21.960;2024-03-02T02:37:39;5.80;99.90
68485;DHT22;55472;50.060;21.960;2024-03-02T02:40:06;5.80;99.90
68485;DHT22;55472;50.060;21.960;2024-03-02T02:42:32;5.70;99.90
68485;DHT22;55472;50.060;21.960;2024-03-02T02:44:59;5.70;99.90
68485;DHT22;55472;50.060;21.960;2024-03-02T02:47:26;5.70;99.90
68485;DHT22;55472;50.060;21.960;2024-03-02T02:49:52;5.70;99.90
68485;DHT22;55472;50.060;21.960;2024-03-02T02:52:18;5.60;99.90
68485;DHT22;55472;50.060;21.960;2024-03-02T02:54:44;5.60;99.90
68485;DHT22;55472;50.060;21.960;2024-03-02T02:57:10;5.60;99.90
68485;DHT22;55472;50.060;21.960;2024-03-02T02:59:37;5.60;99.90
68485;DHT22;55472;50.060;21.960;2024-03-02T03:02:03;5.60;99.90
68485;DHT22;55472;50.060;21.960;2024-03-02T03:04:29;5.50;99.90
68485;DHT22;55472;50.060;21.960;2024-03-02T03:06:55;5.50;99.90
68485;DHT22;55472;50.060;21.960;2024-03-02T03:09:22;5.50;99.90
68485;DHT22;55472;50.060;21.960;2024-03-02T03:11:48;5.50;99.90
68485;DHT22;55472;50.060;21.960;2024-03-02T03:14:14;5.50;99.90
68485;DHT22;55472;50.060;21.960;2024-03-02T03:16:40;5.50;99.90
68485;DHT22;55472;50.060;21.960;2024-03-02T03:19:06;5.50;99.90
68485;DHT22;55472;50.060;21.960;2024-03-02T03:21:32;5.50;99.90
68485;DHT22;55472;50.060;21.960;2024-03-02T03:23:58;5.50;99.90
68485;DHT22;55472;50.060;21.960;2024-03-02T03:26:24;5.50;99.90
68485;DHT22;55472;50.060;21.960;2024-03-02T03:28:50;5.50;99.90
68485;DHT22;55472;50.060;21.960;2024-03-02T03:31:16;5.50;99.90
68485;DHT22;55472;50.060;21.960;2024-03-02T03:33:42;5.50;99.90
68485;DHT22;55472;50.060;21.960;2024-03-02T03:36:08;5.50;99.90
68485;DHT22;55472;50.060;21.960;2024-03-02T03:38:35;5.50;99.90
68485;DHT22;55472;50.060;21.960;2024-03-02T03:41:01;5.50;99.90
68485;DHT22;55472;50.060;21.960;2024-03-02T03:43:27;5.50;99.90
68485;DHT22;55472;50.060;21.960;2024-03-02T03:45:53;5.40;99.90
68485;DHT22;55472;50.060;21.960;2024-03-02T03:48:19;5.50;99.90
68485;DHT22;55472;50.060;21.960;2024-03-02T03:50:45;5.50;99.90
68485;DHT22;55472;50.060;21.960;2024-03-02T03:53:11;5.50;99.90
68485;DHT22;55472;50.060;21.960;2024-03-02T03:55:37;5.50;99.90
68485;DHT22;55472;50.060;21.960;2024-03-02T03:58:04;5.40;99.90
68485;DHT22;55472;50.060;21.960;2024-03-02T04:00:30;5.40;99.90
68485;DHT22;55472;50.060;21.960;2024-03-02T04:02:56;5.40;99.90
68485;DHT22;55472;50.060;21.960;2024-03-02T04:05:22;5.40;99.90
68485;DHT22;55472;50.060;21.960;2024-03-02T04:07:48;5.40;99.90
68485;DHT22;55472;50.060;21.960;2024-03-02T04:10:14;5.40;99.90
68485;DHT22;55472;50.060;21.960;2024-03-02T04:12:42;5.40;99.90
68485;DHT22;55472;50.060;21.960;2024-03-02T04:15:08;5.40;99.90
68485;DHT22;55472;50.060;21.960;2024-03-02T04:17:34;5.40;99.90
68485;DHT22;55472;50.060;21.960;2024-03-02T04:20:01;5.40;99.90
68485;DHT22;55472;50.060;21.960;2024-03-02T04:22:33;5.40;99.90
68485;DHT22;55472;50.060;21.960;2024-03-02T04:25:00;5.40;99.90
68485;DHT22;55472;50.060;21.960;2024-03-02T04:27:27;5.40;99.90
68485;DHT22;55472;50.060;21.960;2024-03-02T04:29:53;5.40;99.90
68485;DHT22;55472;50.060;21.960;2024-03-02T04:32:19;5.40;99.90
68485;DHT22;55472;50.060;21.960;2024-03-02T04:34:45;5.40;99.90
68485;DHT22;55472;50.060;21.960;2024-03-02T04:37:11;5.40;99.90
68485;DHT22;55472;50.060;21.960;2024-03-02T04:39:41;5.40;99.90
68485;DHT22;55472;50.060;21.960;2024-03-02T04:42:07;5.50;99.90
68485;DHT22;55472;50.060;21.960;2024-03-02T04:44:33;5.50;99.90
68485;DHT22;55472;50.060;21.960;2024-03-02T04:46:59;5.40;99.90
68485;DHT22;55472;50.060;21.960;2024-03-02T04:49:25;5.40;99.90
68485;DHT22;55472;50.060;21.960;2024-03-02T04:51:51;5.40;99.90
68485;DHT22;55472;50.060;21.960;2024-03-02T04:54:17;5.50;99.90
68485;DHT22;55472;50.060;21.960;2024-03-02T04:56:45;5.50;99.90
68485;DHT22;55472;50.060;21.960;2024-03-02T04:59:19;5.50;99.90
68485;DHT22;55472;50.060;21.960;2024-03-02T05:01:45;5.50;99.90
68485;DHT22;55472;50.060;21.960;2024-03-02T05:04:13;5.50;99.90
68485;DHT22;55472;50.060;21.960;2024-03-02T05:06:39;5.50;99.90
68485;DHT22;55472;50.060;21.960;2024-03-02T05:09:07;5.50;99.90
68485;DHT22;55472;50.060;21.960;2024-03-02T05:11:33;5.50;99.90
68485;DHT22;55472;50.060;21.960;2024-03-02T05:14:03;5.50;99.90
68485;DHT22;55472;50.060;21.960;2024-03-02T05:16:34;5.50;99.90
68485;DHT22;55472;50.060;21.960;2024-03-02T05:19:01;5.50;99.90
68485;DHT22;55472;50.060;21.960;2024-03-02T05:21:27;5.50;99.90
68485;DHT22;55472;50.060;21.960;2024-03-02T05:23:53;5.50;99.90
68485;DHT22;55472;50.060;21.960;2024-03-02T05:26:19;5.50;99.90
68485;DHT22;55472;50.060;21.960;2024-03-02T05:28:45;5.60;99.90
68485;DHT22;55472;50.060;21.960;2024-03-02T05:31:11;5.60;99.90
68485;DHT22;55472;50.060;21.960;2024-03-02T05:33:40;5.60;99.90
68485;DHT22;55472;50.060;21.960;2024-03-02T05:36:07;5.60;99.90
68485;DHT22;55472;50.060;21.960;2024-03-02T05:38:36;5.60;99.90
68485;DHT22;55472;50.060;21.960;2024-03-02T05:41:03;5.60;99.90
68485;DHT22;55472;50.060;21.960;2024-03-02T05:43:29;5.60;99.90
68485;DHT22;55472;50.060;21.960;2024-03-02T05:45:55;5.60;99.90
68485;DHT22;55472;50.060;21.960;2024-03-02T05:48:21;5.60;99.90
68485;DHT22;55472;50.060;21.960;2024-03-02T05:50:47;5.60;99.90
68485;DHT22;55472;50.060;21.960;2024-03-02T05:53:13;5.60;99.90
68485;DHT22;55472;50.060;21.960;2024-03-02T05:55:39;5.60;99.90
68485;DHT22;55472;50.060;21.960;2024-03-02T05:58:05;5.60;99.90
68485;DHT22;55472;50.060;21.960;2024-03-02T06:00:32;5.60;99.90
68485;DHT22;55472;50.060;21.960;2024-03-02T06:02:58;5.70;99.90
68485;DHT22;55472;50.060;21.960;2024-03-02T06:05:24;5.70;99.90
68485;DHT22;55472;50.060;21.960;2024-03-02T06:07:50;5.70;99.90
68485;DHT22;55472;50.060;21.960;2024-03-02T06:10:17;5.70;99.90
68485;DHT22;55472;50.060;21.960;2024-03-02T06:12:43;5.70;99.90
68485;DHT22;55472;50.060;21.960;2024-03-02T06:15:10;5.70;99.90
68485;DHT22;55472;50.060;21.960;2024-03-02T06:17:36;5.70;99.90
68485;DHT22;55472;50.060;21.960;2024-03-02T06:20:03;5.70;99.90
68485;DHT22;55472;50.060;21.960;2024-03-02T06:22:29;5.70;99.90
68485;DHT22;55472;50.060;21.960;2024-03-02T06:24:55;5.70;99.90
68485;DHT22;55472;50.060;21.960;2024-03-02T06:27:21;5.70;99.90
68485;DHT22;55472;50.060;21.960;2024-03-02T06:29:48;5.70;99.90
68485;DHT22;55472;50.060;21.960;2024-03-02T06:32:14;5.70;99.90
68485;DHT22;55472;50.060;21.960;2024-03-02T06:34:40;5.70;99.90
68485;DHT22;55472;50.060;21.960;2024-03-02T06:37:06;5.70;99.90
68485;DHT22;55472;50.060;21.960;2024-03-02T06:39:32;5.70;99.90
68485;DHT22;55472;50.060;21.960;2024-03-02T06:42:00;5.70;99.90
68485;DHT22;55472;50.060;21.960;2024-03-02T06:44:26;5.70;99.90
68485;DHT22;55472;50.060;21.960;2024-03-02T06:46:52;5.80;99.90
68485;DHT22;55472;50.060;21.960;2024-03-02T06:49:18;5.80;99.90
68485;DHT22;55472;50.060;21.960;2024-03-02T06:51:44;5.80;99.90
68485;DHT22;55472;50.060;21.960;2024-03-02T06:54:11;5.80;99.90
68485;DHT22;55472;50.060;21.960;2024-03-02T06:56:36;5.80;99.90
68485;DHT22;55472;50.060;21.960;2024-03-02T06:59:04;5.80;99.90
68485;DHT22;55472;50.060;21.960;2024-03-02T07:01:30;5.80;99.90
68485;DHT22;55472;50.060;21.960;2024-03-02T07:03:56;5.80;99.90
68485;DHT22;55472;50.060;21.960;2024-03-02T07:06:22;5.80;99.90
68485;DHT22;55472;50.060;21.960;2024-03-02T07:08:49;5.90;99.90
68485;DHT22;55472;50.060;21.960;2024-03-02T07:11:15;5.90;99.90
68485;DHT22;55472;50.060;21.960;2024-03-02T07:13:41;5.90;99.90
68485;DHT22;55472;50.060;21.960;2024-03-02T07:16:07;6.00;99.90
68485;DHT22;55472;50.060;21.960;2024-03-02T07:18:52;6.00;99.90
68485;DHT22;55472;50.060;21.960;2024-03-02T07:21:18;6.00;99.90
68485;DHT22;55472;50.060;21.960;2024-03-02T07:23:44;6.00;99.90
68485;DHT22;55472;50.060;21.960;2024-03-02T07:26:10;6.10;99.90
68485;DHT22;55472;50.060;21.960;2024-03-02T07:28:37;6.10;99.90
68485;DHT22;55472;50.060;21.960;2024-03-02T07:31:03;6.10;99.90
68485;DHT22;55472;50.060;21.960;2024-03-02T07:33:30;6.10;99.90
68485;DHT22;55472;50.060;21.960;2024-03-02T07:35:57;6.20;99.90
68485;DHT22;55472;50.060;21.960;2024-03-02T07:38:27;6.20;99.90
68485;DHT22;55472;50.060;21.960;2024-03-02T07:40:54;6.20;99.90
68485;DHT22;55472;50.060;21.960;2024-03-02T07:43:21;6.20;99.90
68485;DHT22;55472;50.060;21.960;2024-03-02T07:45:48;6.20;99.90
68485;DHT22;55472;50.060;21.960;2024-03-02T07:48:15;6.30;99.90
68485;DHT22;55472;50.060;21.960;2024-03-02T07:50:41;6.30;99.90
68485;DHT22;55472;50.060;21.960;2024-03-02T07:53:09;6.30;99.90
68485;DHT22;55472;50.060;21.960;2024-03-02T07:55:35;6.40;99.90
68485;DHT22;55472;50.060;21.960;2024-03-02T07:58:01;6.40;99.90
68485;DHT22;55472;50.060;21.960;2024-03-02T08:00:27;6.50;99.90
68485;DHT22;55472;50.060;21.960;2024-03-02T08:02:54;6.50;99.90
68485;DHT22;55472;50.060;21.960;2024-03-02T08:05:21;6.50;99.90
68485;DHT22;55472;50.060;21.960;2024-03-02T08:07:48;6.50;99.90
68485;DHT22;55472;50.060;21.960;2024-03-02T08:10:18;6.50;99.90
68485;DHT22;55472;50.060;21.960;2024-03-02T08:12:45;6.60;99.90
68485;DHT22;55472;50.060;21.960;2024-03-02T08:15:11;6.60;99.90
68485;DHT22;55472;50.060;21.960;2024-03-02T08:17:40;6.60;99.90
68485;DHT22;55472;50.060;21.960;2024-03-02T08:20:14;6.70;99.90
68485;DHT22;55472;50.060;21.960;2024-03-02T08:22:40;6.70;99.90
68485;DHT22;55472;50.060;21.960;2024-03-02T08:25:07;6.60;99.90
68485;DHT22;55472;50.060;21.960;2024-03-02T08:27:34;6.70;99.90
68485;DHT22;55472;50.060;21.960;2024-03-02T08:30:00;6.70;99.90
68485;DHT22;55472;50.060;21.960;2024-03-02T08:32:26;6.70;99.90
68485;DHT22;55472;50.060;21.960;2024-03-02T08:34:52;6.70;99.90
68485;DHT22;55472;50.060;21.960;2024-03-02T08:37:18;6.70;99.90
68485;DHT22;55472;50.060;21.960;2024-03-02T08:39:45;6.70;99.90
68485;DHT22;55472;50.060;21.960;2024-03-02T08:42:11;6.70;99.90
68485;DHT22;55472;50.060;21.960;2024-03-02T08:44:37;6.70;99.90
68485;DHT22;55472;50.060;21.960;2024-03-02T08:47:04;6.80;99.90
68485;DHT22;55472;50.060;21.960;2024-03-02T08:49:29;6.80;99.90
68485;DHT22;55472;50.060;21.960;2024-03-02T08:51:56;6.80;99.90
68485;DHT22;55472;50.060;21.960;2024-03-02T08:54:22;6.80;99.90
68485;DHT22;55472;50.060;21.960;2024-03-02T08:56:49;6.80;99.90
68485;DHT22;55472;50.060;21.960;2024-03-02T08:59:16;6.80;99.90
68485;DHT22;55472;50.060;21.960;2024-03-02T09:01:43;6.80;99.90
68485;DHT22;55472;50.060;21.960;2024-03-02T09:04:09;6.80;99.90
68485;DHT22;55472;50.060;21.960;2024-03-02T09:06:35;6.90;99.90
68485;DHT22;55472;50.060;21.960;2024-03-02T09:09:01;6.80;99.90
68485;DHT22;55472;50.060;21.960;2024-03-02T09:11:27;6.90;99.90
68485;DHT22;55472;50.060;21.960;2024-03-02T09:13:53;6.90;99.90
68485;DHT22;55472;50.060;21.960;2024-03-02T09:16:21;6.90;99.90
68485;DHT22;55472;50.060;21.960;2024-03-02T09:18:47;6.90;99.90
68485;DHT22;55472;50.060;21.960;2024-03-02T09:21:13;7.00;99.90
68485;DHT22;55472;50.060;21.960;2024-03-02T09:23:40;7.00;99.90
68485;DHT22;55472;50.060;21.960;2024-03-02T09:26:07;7.00;99.90
68485;DHT22;55472;50.060;21.960;2024-03-02T09:28:33;7.10;99.90
68485;DHT22;55472;50.060;21.960;2024-03-02T09:31:01;7.10;99.90
68485;DHT22;55472;50.060;21.960;2024-03-02T09:33:26;7.10;99.90
68485;DHT22;55472;50.060;21.960;2024-03-02T09:35:53;7.10;99.90
68485;DHT22;55472;50.060;21.960;2024-03-02T09:38:19;7.10;99.90
68485;DHT22;55472;50.060;21.960;2024-03-02T09:40:45;7.10;99.90
68485;DHT22;55472;50.060;21.960;2024-03-02T09:43:11;7.10;99.90
68485;DHT22;55472;50.060;21.960;2024-03-02T09:45:39;7.10;99.90
68485;DHT22;55472;50.060;21.960;2024-03-02T09:48:05;7.10;99.90
68485;DHT22;55472;50.060;21.960;2024-03-02T09:50:32;7.10;99.90
68485;DHT22;55472;50.060;21.960;2024-03-02T09:52:59;7.10;99.90
68485;DHT22;55472;50.060;21.960;2024-03-02T09:55:25;7.10;99.90
68485;DHT22;55472;50.060;21.960;2024-03-02T09:57:51;7.10;99.90
68485;DHT22;55472;50.060;21.960;2024-03-02T10:00:18;7.10;99.90
68485;DHT22;55472;50.060;21.960;2024-03-02T10:02:44;7.10;99.90
68485;DHT22;55472;50.060;21.960;2024-03-02T10:05:12;7.10;99.90
68485;DHT22;55472;50.060;21.960;2024-03-02T10:07:37;7.10;99.90
68485;DHT22;55472;50.060;21.960;2024-03-02T10:10:14;7.10;99.90
68485;DHT22;55472;50.060;21.960;2024-03-02T10:12:41;7.00;99.90
68485;DHT22;55472;50.060;21.960;2024-03-02T10:15:07;7.10;99.90
68485;DHT22;55472;50.060;21.960;2024-03-02T10:17:35;7.10;99.90
68485;DHT22;55472;50.060;21.960;2024-03-02T10:20:24;7.10;99.90
68485;DHT22;55472;50.060;21.960;2024-03-02T10:22:50;7.10;99.90
68485;DHT22;55472;50.060;21.960;2024-03-02T10:27:58;7.10;99.90
68485;DHT22;55472;50.060;21.960;2024-03-02T10:30:31;7.10;99.90
68485;DHT22;55472;50.060;21.960;2024-03-02T10:32:57;7.10;99.90
68485;DHT22;55472;50.060;21.960;2024-03-02T10:35:24;7.10;99.90
68485;DHT22;55472;50.060;21.960;2024-03-02T10:37:52;7.20;99.90
68485;DHT22;55472;50.060;21.960;2024-03-02T10:40:21;7.20;99.90
68485;DHT22;55472;50.060;21.960;2024-03-02T10:42:50;7.20;99.90
68485;DHT22;55472;50.060;21.960;2024-03-02T10:45:19;7.30;99.90
68485;DHT22;55472;50.060;21.960;2024-03-02T10:47:47;7.30;99.90
68485;DHT22;55472;50.060;21.960;2024-03-02T10:50:13;7.30;99.90
68485;DHT22;55472;50.060;21.960;2024-03-02T10:52:40;7.30;99.90
68485;DHT22;55472;50.060;21.960;2024-03-02T10:55:07;7.30;99.90
68485;DHT22;55472;50.060;21.960;2024-03-02T10:57:45;7.40;99.90
68485;DHT22;55472;50.060;21.960;2024-03-02T11:00:24;7.40;99.90
68485;DHT22;55472;50.060;21.960;2024-03-02T11:03:04;7.40;99.90
68485;DHT22;55472;50.060;21.960;2024-03-02T11:05:34;7.50;99.90
68485;DHT22;55472;50.060;21.960;2024-03-02T11:08:06;7.50;99.90
68485;DHT22;55472;50.060;21.960;2024-03-02T11:10:37;7.50;99.90
68485;DHT22;55472;50.060;21.960;2024-03-02T11:13:12;7.60;99.90
68485;DHT22;55472;50.060;21.960;2024-03-02T11:15:40;7.70;99.90
68485;DHT22;55472;50.060;21.960;2024-03-02T11:18:09;7.70;99.90
68485;DHT22;55472;50.060;21.960;2024-03-02T11:20:40;7.70;99.90
68485;DHT22;55472;50.060;21.960;2024-03-02T11:23:07;7.80;99.90
68485;DHT22;55472;50.060;21.960;2024-03-02T11:25:35;7.80;99.90
68485;DHT22;55472;50.060;21.960;2024-03-02T11:28:03;7.80;99.90
68485;DHT22;55472;50.060;21.960;2024-03-02T11:33:09;7.80;99.90
68485;DHT22;55472;50.060;21.960;2024-03-02T11:35:42;7.90;99.90
68485;DHT22;55472;50.060;21.960;2024-03-02T11:38:09;7.90;99.90
68485;DHT22;55472;50.060;21.960;2024-03-02T11:40:35;8.00;99.90
68485;DHT22;55472;50.060;21.960;2024-03-02T11:43:02;8.10;99.90
68485;DHT22;55472;50.060;21.960;2024-03-02T11:45:28;8.10;99.90
68485;DHT22;55472;50.060;21.960;2024-03-02T11:47:59;8.10;99.90
68485;DHT22;55472;50.060;21.960;2024-03-02T11:50:49;8.20;99.90
68485;DHT22;55472;50.060;21.960;2024-03-02T11:53:16;8.20;99.90
68485;DHT22;55472;50.060;21.960;2024-03-02T11:55:43;8.20;99.90
68485;DHT22;55472;50.060;21.960;2024-03-02T11:58:12;8.30;99.90
68485;DHT22;55472;50.060;21.960;2024-03-02T12:00:39;8.30;99.90
68485;DHT22;55472;50.060;21.960;2024-03-02T12:03:07;8.30;99.90
68485;DHT22;55472;50.060;21.960;2024-03-02T12:05:35;8.30;99.90
68485;DHT22;55472;50.060;21.960;2024-03-02T12:08:05;8.40;99.90
68485;DHT22;55472;50.060;21.960;2024-03-02T12:10:33;8.40;99.90
68485;DHT22;55472;50.060;21.960;2024-03-02T12:13:01;8.50;99.90
68485;DHT22;55472;50.060;21.960;2024-03-02T12:15:30;8.50;99.90
68485;DHT22;55472;50.060;21.960;2024-03-02T12:17:59;8.60;99.90
68485;DHT22;55472;50.060;21.960;2024-03-02T12:20:27;8.70;99.90
68485;DHT22;55472;50.060;21.960;2024-03-02T12:22:57;8.80;99.90
68485;DHT22;55472;50.060;21.960;2024-03-02T12:25:26;8.80;99.90
68485;DHT22;55472;50.060;21.960;2024-03-02T12:27:55;8.80;99.90
68485;DHT22;55472;50.060;21.960;2024-03-02T12:30:23;8.90;99.90
68485;DHT22;55472;50.060;21.960;2024-03-02T12:32:50;8.90;99.90
68485;DHT22;55472;50.060;21.960;2024-03-02T12:35:18;9.00;99.90
68485;DHT22;55472;50.060;21.960;2024-03-02T12:37:45;9.10;99.90
68485;DHT22;55472;50.060;21.960;2024-03-02T12:40:13;9.10;99.90
68485;DHT22;55472;50.060;21.960;2024-03-02T12:42:40;9.20;99.90
68485;DHT22;55472;50.060;21.960;2024-03-02T12:45:08;9.20;99.90
68485;DHT22;55472;50.060;21.960;2024-03-02T12:47:35;9.20;99.90
68485;DHT22;55472;50.060;21.960;2024-03-02T12:50:03;9.20;99.90
68485;DHT22;55472;50.060;21.960;2024-03-02T12:52:30;9.30;99.90
68485;DHT22;55472;50.060;21.960;2024-03-02T12:55:03;9.30;99.90
68485;DHT22;55472;50.060;21.960;2024-03-02T12:57:32;9.30;99.90
68485;DHT22;55472;50.060;21.960;2024-03-02T13:00:03;9.30;99.90
68485;DHT22;55472;50.060;21.960;2024-03-02T13:02:40;9.30;99.90
68485;DHT22;55472;50.060;21.960;2024-03-02T13:05:07;9.30;99.90
68485;DHT22;55472;50.060;21.960;2024-03-02T13:07:40;9.30;99.90
68485;DHT22;55472;50.060;21.960;2024-03-02T13:10:07;9.40;99.90
68485;DHT22;55472;50.060;21.960;2024-03-02T13:12:36;9.40;99.90
68485;DHT22;55472;50.060;21.960;2024-03-02T13:15:03;9.50;99.90
68485;DHT22;55472;50.060;21.960;2024-03-02T13:17:31;9.50;99.90
68485;DHT22;55472;50.060;21.960;2024-03-02T13:19:59;9.50;99.90
68485;DHT22;55472;50.060;21.960;2024-03-02T13:22:26;9.50;99.90
68485;DHT22;55472;50.060;21.960;2024-03-02T13:24:53;9.40;99.90
68485;DHT22;55472;50.060;21.960;2024-03-02T13:27:23;9.40;99.90
68485;DHT22;55472;50.060;21.960;2024-03-02T13:29:49;9.40;99.90
68485;DHT22;55472;50.060;21.960;2024-03-02T13:32:16;9.30;99.90
68485;DHT22;55472;50.060;21.960;2024-03-02T13:34:43;9.30;99.90
68485;DHT22;55472;50.060;21.960;2024-03-02T13:37:09;9.20;99.90
68485;DHT22;55472;50.060;21.960;2024-03-02T13:39:35;9.20;99.90
68485;DHT22;55472;50.060;21.960;2024-03-02T13:42:11;9.10;99.90
68485;DHT22;55472;50.060;21.960;2024-03-02T13:44:40;9.10;99.90
68485;DHT22;55472;50.060;21.960;2024-03-02T13:47:07;9.10;99.90
68485;DHT22;55472;50.060;21.960;2024-03-02T13:49:33;9.00;99.90
68485;DHT22;55472;50.060;21.960;2024-03-02T13:52:03;9.00;99.90
68485;DHT22;55472;50.060;21.960;2024-03-02T13:54:37;8.90;99.90
68485;DHT22;55472;50.060;21.960;2024-03-02T13:57:05;8.80;99.90
68485;DHT22;55472;50.060;21.960;2024-03-02T13:59:32;8.80;99.90
68485;DHT22;55472;50.060;21.960;2024-03-02T14:02:00;8.80;99.90
68485;DHT22;55472;50.060;21.960;2024-03-02T14:04:26;8.80;99.90
68485;DHT22;55472;50.060;21.960;2024-03-02T14:06:52;8.70;99.90
68485;DHT22;55472;50.060;21.960;2024-03-02T14:09:19;8.70;99.90
68485;DHT22;55472;50.060;21.960;2024-03-02T14:11:46;8.70;99.90
68485;DHT22;55472;50.060;21.960;2024-03-02T14:14:12;8.60;99.90
68485;DHT22;55472;50.060;21.960;2024-03-02T14:16:39;8.60;99.90
68485;DHT22;55472;50.060;21.960;2024-03-02T14:19:05;8.60;99.90
68485;DHT22;55472;50.060;21.960;2024-03-02T14:21:31;8.70;99.90
68485;DHT22;55472;50.060;21.960;2024-03-02T14:23:57;8.60;99.90
68485;DHT22;55472;50.060;21.960;2024-03-02T14:26:23;8.60;99.90
68485;DHT22;55472;50.060;21.960;2024-03-02T14:28:49;8.60;99.90
68485;DHT22;55472;50.060;21.960;2024-03-02T14:31:16;8.60;99.90
68485;DHT22;55472;50.060;21.960;2024-03-02T14:33:42;8.60;99.90
68485;DHT22;55472;50.060;21.960;2024-03-02T14:36:08;8.60;99.90
68485;DHT22;55472;50.060;21.960;2024-03-02T14:38:35;8.60;99.90
68485;DHT22;55472;50.060;21.960;2024-03-02T14:41:01;8.60;99.90
68485;DHT22;55472;50.060;21.960;2024-03-02T14:43:27;8.60;99.90
68485;DHT22;55472;50.060;21.960;2024-03-02T14:45:53;8.60;99.90
68485;DHT22;55472;50.060;21.960;2024-03-02T14:48:20;8.60;99.90
68485;DHT22;55472;50.060;21.960;2024-03-02T14:50:46;8.60;99.90
68485;DHT22;55472;50.060;21.960;2024-03-02T14:53:12;8.60;99.90
68485;DHT22;55472;50.060;21.960;2024-03-02T14:55:38;8.60;99.90
68485;DHT22;55472;50.060;21.960;2024-03-02T14:58:05;8.60;99.90
68485;DHT22;55472;50.060;21.960;2024-03-02T15:00:31;8.60;99.90
68485;DHT22;55472;50.060;21.960;2024-03-02T15:02:57;8.50;99.90
68485;DHT22;55472;50.060;21.960;2024-03-02T15:05:23;8.50;99.90
68485;DHT22;55472;50.060;21.960;2024-03-02T15:07:52;8.50;99.90
68485;DHT22;55472;50.060;21.960;2024-03-02T15:10:18;8.50;99.90
68485;DHT22;55472;50.060;21.960;2024-03-02T15:12:45;8.50;99.90
68485;DHT22;55472;50.060;21.960;2024-03-02T15:15:12;8.50;99.90
68485;DHT22;55472;50.060;21.960;2024-03-02T15:17:38;8.50;99.90
68485;DHT22;55472;50.060;21.960;2024-03-02T15:20:04;8.50;99.90
68485;DHT22;55472;50.060;21.960;2024-03-02T15:22:33;8.40;99.90
68485;DHT22;55472;50.060;21.960;2024-03-02T15:24:59;8.40;99.90
68485;DHT22;55472;50.060;21.960;2024-03-02T15:27:25;8.40;99.90
68485;DHT22;55472;50.060;21.960;2024-03-02T15:29:53;8.40;99.90
68485;DHT22;55472;50.060;21.960;2024-03-02T15:32:21;8.40;99.90
68485;DHT22;55472;50.060;21.960;2024-03-02T15:34:47;8.40;99.90
68485;DHT22;55472;50.060;21.960;2024-03-02T15:37:13;8.40;99.90
68485;DHT22;55472;50.060;21.960;2024-03-02T15:39:39;8.30;99.90
68485;DHT22;55472;50.060;21.960;2024-03-02T15:42:05;8.30;99.90
68485;DHT22;55472;50.060;21.960;2024-03-02T15:44:31;8.30;99.90